Time;durP1;ratioP1;P1;durP2;ratioP2;P2;SDS_P1;SDS_P2;PMS_P1;PMS_P2;Temp;Humidity;BMP_temperature;BMP_pressure;BME280_temperature;BME280_humidity;BME280_pressure;Samples;Min_cycle;Max_cycle;Signal;HPM_P1;HPM_P2
2023/06/26 00:00:31;;;;;;;10.13;5.90;;;15.10;99.90;;;;;;4385798;28;656777;-72
2023/06/26 00:03:20;;;;;;;10.87;6.10;;;15.00;99.90;;;;;;4407614;28;657924;-72
2023/06/26 00:06:07;;;;;;;11.75;6.22;;;15.00;99.90;;;;;;4383938;28;658849;-72
2023/06/26 00:08:55;;;;;;;11.17;6.10;;;14.90;99.90;;;;;;4411586;28;657524;-72
2023/06/26 00:11:42;;;;;;;10.10;6.13;;;14.90;99.90;;;;;;4383586;28;658804;-73
2023/06/26 00:14:29;;;;;;;15.43;6.53;;;14.90;99.90;;;;;;4408591;28;661276;-72
2023/06/26 00:17:16;;;;;;;7.97;5.63;;;14.80;99.90;;;;;;4390443;28;657612;-72
2023/06/26 00:20:06;;;;;;;9.30;6.07;;;14.70;99.90;;;;;;4411521;28;657423;-72
2023/06/26 00:22:55;;;;;;;10.57;6.50;;;14.70;99.90;;;;;;4383358;28;657287;-72
2023/06/26 00:25:42;;;;;;;9.13;5.90;;;14.60;99.90;;;;;;4385252;28;658378;-73
2023/06/26 00:28:30;;;;;;;13.40;6.20;;;14.60;99.90;;;;;;4413674;28;656553;-72
2023/06/26 00:31:17;;;;;;;12.23;5.80;;;14.50;99.90;;;;;;4383318;28;658951;-72
2023/06/26 00:34:04;;;;;;;14.10;6.30;;;14.50;99.90;;;;;;4406921;28;658180;-72
2023/06/26 00:36:53;;;;;;;9.40;5.78;;;14.40;99.90;;;;;;4391731;28;658309;-73
2023/06/26 00:39:41;;;;;;;12.13;5.83;;;14.40;99.90;;;;;;4404229;28;656876;-73
2023/06/26 00:42:28;;;;;;;12.13;6.23;;;14.30;99.90;;;;;;4412762;28;657550;-72
2023/06/26 00:45:15;;;;;;;10.73;5.93;;;14.30;99.90;;;;;;4389164;28;658037;-73
2023/06/26 00:48:02;;;;;;;10.50;5.90;;;14.20;99.90;;;;;;4404111;28;658288;-72
2023/06/26 00:50:50;;;;;;;10.57;5.93;;;14.20;99.90;;;;;;4401979;28;658410;-73
2023/06/26 00:53:39;;;;;;;15.30;6.67;;;14.10;99.90;;;;;;4411421;28;658590;-73
2023/06/26 00:56:26;;;;;;;15.07;6.33;;;14.10;99.90;;;;;;4388978;28;658078;-73
2023/06/26 00:59:13;;;;;;;16.13;7.03;;;14.00;99.90;;;;;;4406842;28;658606;-72
2023/06/26 01:02:00;;;;;;;13.17;7.17;;;14.00;99.90;;;;;;4390286;28;657952;-73
2023/06/26 01:04:48;;;;;;;14.10;6.60;;;14.00;99.90;;;;;;4399098;28;658512;-72
2023/06/26 01:07:37;;;;;;;11.57;6.80;;;14.00;99.90;;;;;;4388415;28;657951;-73
2023/06/26 01:10:27;;;;;;;14.40;6.93;;;13.90;99.90;;;;;;4405573;28;657509;-73
2023/06/26 01:13:14;;;;;;;10.90;6.40;;;13.90;99.90;;;;;;4383181;28;658579;-72
2023/06/26 01:16:02;;;;;;;11.47;6.53;;;13.80;99.90;;;;;;4385238;28;658044;-73
2023/06/26 01:18:49;;;;;;;12.57;6.70;;;13.80;99.90;;;;;;4405780;28;658684;-73
2023/06/26 01:21:36;;;;;;;13.80;6.90;;;13.80;99.90;;;;;;4383110;28;659029;-73
2023/06/26 01:24:27;;;;;;;12.43;6.23;;;13.70;99.90;;;;;;4405557;28;657475;-72
2023/06/26 01:27:15;;;;;;;14.27;7.07;;;13.70;99.90;;;;;;4385713;28;657779;-72
2023/06/26 01:30:04;;;;;;;14.83;6.63;;;13.70;99.90;;;;;;4385031;28;659327;-72
2023/06/26 01:32:51;;;;;;;13.90;6.50;;;13.60;99.90;;;;;;4388829;28;658058;-73
2023/06/26 01:35:38;;;;;;;10.73;6.40;;;13.60;99.90;;;;;;4402795;28;657750;-73
2023/06/26 01:38:25;;;;;;;13.68;5.93;;;13.60;99.90;;;;;;4386134;28;658164;-73
2023/06/26 01:41:13;;;;;;;10.30;6.23;;;13.50;99.90;;;;;;4405335;28;658874;-73
2023/06/26 01:44:13;;;;;;;12.10;6.47;;;13.50;99.90;;;;;;4402239;28;658094;-72
2023/06/26 01:47:02;;;;;;;10.40;6.37;;;13.40;99.90;;;;;;4376640;28;657570;-72
2023/06/26 01:49:51;;;;;;;14.77;6.33;;;13.20;99.90;;;;;;4402980;28;658684;-72
2023/06/26 01:52:40;;;;;;;13.20;6.57;;;13.10;99.90;;;;;;4384718;28;657908;-72
2023/06/26 01:55:35;;;;;;;13.97;6.93;;;13.00;99.90;;;;;;4382827;28;658926;-72
2023/06/26 01:58:24;;;;;;;18.23;6.37;;;12.90;99.90;;;;;;4361212;28;657865;-72
2023/06/26 02:01:13;;;;;;;12.90;6.93;;;12.80;99.90;;;;;;4387323;28;657885;-72
2023/06/26 02:04:00;;;;;;;12.13;6.37;;;12.70;99.90;;;;;;4387809;28;657500;-72
2023/06/26 02:06:47;;;;;;;11.50;6.70;;;12.70;99.90;;;;;;4411052;28;657496;-72
2023/06/26 02:09:34;;;;;;;14.23;6.50;;;12.60;99.90;;;;;;4395512;28;657360;-72
2023/06/26 02:12:22;;;;;;;14.97;6.97;;;12.50;99.90;;;;;;4386645;28;658169;-72
2023/06/26 02:15:10;;;;;;;11.93;6.83;;;12.40;99.90;;;;;;4411632;28;657826;-72
2023/06/26 02:17:58;;;;;;;15.63;6.83;;;12.30;99.90;;;;;;4384809;28;658105;-72
2023/06/26 02:20:45;;;;;;;10.23;5.93;;;12.30;99.90;;;;;;4387742;28;657640;-72
2023/06/26 02:23:33;;;;;;;11.30;6.97;;;12.20;99.90;;;;;;4406621;28;658704;-72
2023/06/26 02:26:20;;;;;;;12.93;6.50;;;12.20;99.90;;;;;;4396148;28;657837;-72
2023/06/26 02:29:07;;;;;;;14.57;6.67;;;12.20;99.90;;;;;;4402134;28;658825;-72
2023/06/26 02:31:55;;;;;;;9.93;5.90;;;12.10;99.90;;;;;;4403335;28;657846;-73
2023/06/26 02:34:44;;;;;;;13.67;6.33;;;12.10;99.90;;;;;;4412720;28;657049;-72
2023/06/26 02:37:31;;;;;;;13.30;6.57;;;12.10;99.90;;;;;;4381612;28;657641;-73
2023/06/26 02:40:18;;;;;;;22.23;6.03;;;12.00;99.90;;;;;;4410677;28;658531;-72
2023/06/26 02:43:06;;;;;;;13.97;6.57;;;12.00;99.90;;;;;;4386294;28;657866;-73
2023/06/26 02:45:53;;;;;;;16.37;7.17;;;11.90;99.90;;;;;;4406253;28;659526;-73
2023/06/26 02:48:40;;;;;;;10.98;6.15;;;11.80;99.90;;;;;;4389591;28;657308;-73
2023/06/26 02:51:29;;;;;;;11.63;6.27;;;11.80;99.90;;;;;;4409928;28;658077;-73
2023/06/26 02:54:16;;;;;;;13.67;6.30;;;11.90;99.90;;;;;;4385218;28;658659;-73
2023/06/26 02:57:03;;;;;;;11.43;6.60;;;11.90;99.90;;;;;;4410023;28;658371;-73
2023/06/26 02:59:50;;;;;;;10.93;6.10;;;11.90;99.90;;;;;;4387174;28;657953;-72
2023/06/26 03:02:38;;;;;;;11.83;5.90;;;11.90;99.90;;;;;;4397267;28;659123;-72
2023/06/26 03:05:25;;;;;;;11.27;6.30;;;12.00;99.90;;;;;;4393240;28;657604;-73
2023/06/26 03:08:14;;;;;;;10.00;6.47;;;12.00;99.90;;;;;;4405614;28;658785;-72
2023/06/26 03:11:01;;;;;;;10.77;5.93;;;12.00;99.90;;;;;;4388581;28;657441;-72
2023/06/26 03:13:49;;;;;;;12.40;6.40;;;12.00;99.90;;;;;;4406920;28;658187;-72
2023/06/26 03:16:36;;;;;;;13.10;6.37;;;12.10;99.90;;;;;;4387375;28;658196;-72
2023/06/26 03:19:23;;;;;;;14.80;6.55;;;12.20;99.90;;;;;;4400677;28;657624;-72
2023/06/26 03:22:10;;;;;;;17.40;6.40;;;12.20;99.90;;;;;;4384892;28;657303;-72
2023/06/26 03:24:59;;;;;;;14.40;6.50;;;12.10;99.90;;;;;;4407877;28;658912;-73
2023/06/26 03:27:46;;;;;;;13.88;6.30;;;12.20;99.90;;;;;;4389511;28;657975;-73
2023/06/26 03:30:33;;;;;;;9.87;5.93;;;12.20;99.90;;;;;;4407180;28;658489;-73
2023/06/26 03:33:21;;;;;;;12.33;6.47;;;12.30;99.90;;;;;;4388367;28;656872;-72
2023/06/26 03:36:09;;;;;;;12.60;6.40;;;12.30;99.90;;;;;;4405979;28;657897;-73
2023/06/26 03:38:56;;;;;;;12.83;6.20;;;12.30;99.90;;;;;;4386349;28;657797;-72
2023/06/26 03:41:45;;;;;;;16.43;6.03;;;12.40;99.90;;;;;;4406693;28;658155;-73
2023/06/26 03:44:32;;;;;;;17.23;6.07;;;12.40;99.90;;;;;;4389432;28;658240;-73
2023/06/26 03:47:19;;;;;;;11.87;6.13;;;12.50;99.90;;;;;;4412313;28;657767;-72
2023/06/26 03:50:07;;;;;;;15.47;6.03;;;12.60;99.90;;;;;;4389789;28;657524;-72
2023/06/26 03:52:54;;;;;;;19.20;6.30;;;12.70;99.90;;;;;;4408906;28;658244;-72
2023/06/26 03:55:42;;;;;;;15.63;6.47;;;12.80;99.90;;;;;;4390595;28;657643;-72
2023/06/26 03:58:30;;;;;;;13.13;6.40;;;12.90;99.90;;;;;;4412067;28;657330;-73
2023/06/26 04:01:21;;;;;;;12.87;6.50;;;13.00;99.90;;;;;;4388524;28;657661;-72
2023/06/26 04:04:08;;;;;;;18.67;6.80;;;13.10;99.90;;;;;;4386523;28;658094;-72
2023/06/26 04:06:57;;;;;;;18.30;7.37;;;13.20;99.90;;;;;;4392623;28;657860;-72
2023/06/26 04:09:44;;;;;;;11.97;6.67;;;13.40;99.90;;;;;;4410962;28;657504;-72
2023/06/26 04:12:31;;;;;;;14.50;7.10;;;13.40;99.90;;;;;;4375695;28;657475;-72
2023/06/26 04:15:20;;;;;;;14.10;6.40;;;13.60;99.90;;;;;;4412531;28;658013;-72
2023/06/26 04:18:07;;;;;;;20.07;7.40;;;13.70;99.90;;;;;;4387198;28;658702;-72
2023/06/26 04:21:08;;;;;;;14.73;6.90;;;13.90;99.90;;;;;;4411067;28;658581;-72
2023/06/26 04:23:56;;;;;;;15.67;7.97;;;13.90;99.90;;;;;;4367084;28;657490;-72
2023/06/26 04:26:45;;;;;;;14.93;7.23;;;14.10;99.90;;;;;;4414952;28;658408;-72
2023/06/26 04:29:32;;;;;;;16.63;7.73;;;14.20;99.90;;;;;;4384002;28;657926;-73
2023/06/26 04:32:21;;;;;;;17.00;7.70;;;14.40;99.90;;;;;;4406310;28;657810;-72
2023/06/26 04:35:09;;;;;;;14.40;7.03;;;14.60;99.90;;;;;;4387293;28;658012;-73
2023/06/26 04:37:57;;;;;;;13.37;7.47;;;14.70;99.90;;;;;;4381638;28;658134;-73
2023/06/26 04:40:44;;;;;;;15.77;7.43;;;14.90;99.90;;;;;;4408946;28;657340;-73
2023/06/26 04:43:31;;;;;;;16.33;7.67;;;15.00;99.90;;;;;;4386295;28;658134;-73
2023/06/26 04:46:19;;;;;;;12.98;7.65;;;15.20;99.90;;;;;;4406989;28;658821;-73
2023/06/26 04:49:07;;;;;;;16.53;7.87;;;15.30;99.90;;;;;;4388223;28;657920;-73
2023/06/26 04:51:55;;;;;;;12.70;8.20;;;15.50;99.90;;;;;;4407724;28;657224;-73
2023/06/26 04:54:42;;;;;;;17.27;8.33;;;15.60;99.90;;;;;;4388652;28;658253;-72
2023/06/26 04:57:29;;;;;;;13.87;7.50;;;15.80;99.90;;;;;;4408508;28;658034;-72
2023/06/26 05:00:17;;;;;;;13.40;8.03;;;15.90;99.90;;;;;;4390265;28;657591;-72
2023/06/26 05:03:04;;;;;;;15.70;8.20;;;16.10;99.90;;;;;;4410102;28;660014;-72
2023/06/26 05:05:53;;;;;;;17.40;8.03;;;16.20;99.90;;;;;;4392433;28;658262;-72
2023/06/26 05:08:41;;;;;;;18.17;8.27;;;16.40;99.90;;;;;;4382646;28;659059;-73
2023/06/26 05:11:28;;;;;;;17.50;7.83;;;16.50;99.90;;;;;;4412073;28;658483;-72
2023/06/26 05:14:15;;;;;;;15.90;8.50;;;16.70;99.90;;;;;;4394309;28;657536;-72
2023/06/26 05:17:02;;;;;;;17.30;8.40;;;16.80;99.90;;;;;;4398577;28;658740;-73
2023/06/26 05:19:50;;;;;;;13.93;7.87;;;17.00;99.90;;;;;;4407842;28;657759;-72
2023/06/26 05:22:39;;;;;;;14.30;7.97;;;17.10;99.90;;;;;;4411688;28;657464;-72
2023/06/26 05:25:28;;;;;;;16.60;8.70;;;17.30;99.90;;;;;;4390453;28;657786;-73
2023/06/26 05:28:16;;;;;;;16.23;8.93;;;17.40;99.90;;;;;;4386783;28;658287;-72
2023/06/26 05:31:04;;;;;;;19.92;8.90;;;17.40;99.90;;;;;;4411593;28;658020;-72
2023/06/26 05:33:52;;;;;;;17.10;9.87;;;17.50;99.90;;;;;;4387762;28;658148;-72
2023/06/26 05:36:39;;;;;;;22.33;9.50;;;17.50;99.90;;;;;;4402179;28;658342;-72
2023/06/26 05:39:29;;;;;;;18.33;9.27;;;17.60;99.90;;;;;;4389985;28;657506;-74
2023/06/26 05:42:17;;;;;;;16.80;8.40;;;17.70;99.90;;;;;;4386539;28;657438;-74
2023/06/26 05:45:04;;;;;;;18.03;8.60;;;17.80;99.90;;;;;;4399588;28;657645;-74
2023/06/26 05:47:52;;;;;;;15.50;8.83;;;17.90;99.90;;;;;;4386166;28;657851;-74
2023/06/26 05:50:41;;;;;;;13.90;8.77;;;17.90;99.90;;;;;;4402197;28;657701;-74
2023/06/26 05:53:29;;;;;;;19.13;9.13;;;18.00;99.90;;;;;;4381605;28;657957;-74
2023/06/26 05:56:19;;;;;;;19.33;8.87;;;18.20;99.90;;;;;;4385398;28;657443;-75
2023/06/26 05:59:06;;;;;;;20.67;8.30;;;18.20;99.90;;;;;;4387317;28;657632;-74
2023/06/26 06:01:54;;;;;;;16.70;8.37;;;18.20;99.90;;;;;;4412358;28;657461;-74
2023/06/26 06:04:41;;;;;;;22.43;9.00;;;18.30;99.90;;;;;;4377058;28;657982;-75
2023/06/26 06:07:28;;;;;;;18.37;9.30;;;18.50;99.90;;;;;;4405592;28;658453;-74
2023/06/26 06:10:15;;;;;;;19.57;8.90;;;18.60;99.90;;;;;;4384133;28;657727;-75
2023/06/26 06:13:04;;;;;;;16.67;8.63;;;18.70;99.90;;;;;;4407563;28;658498;-74
2023/06/26 06:15:51;;;;;;;15.93;8.17;;;18.80;99.90;;;;;;4390325;28;657386;-74
2023/06/26 06:18:38;;;;;;;14.30;8.17;;;19.00;99.90;;;;;;4408897;28;658065;-74
2023/06/26 06:21:26;;;;;;;18.50;8.00;;;19.10;99.90;;;;;;4388563;28;657501;-74
2023/06/26 06:24:13;;;;;;;12.50;7.40;;;19.30;99.90;;;;;;4406256;28;658566;-74
2023/06/26 06:27:00;;;;;;;19.90;8.83;;;19.50;99.90;;;;;;4398490;28;657336;-74
2023/06/26 06:29:49;;;;;;;19.47;8.50;;;19.60;99.90;;;;;;4402217;28;658114;-74
2023/06/26 06:32:36;;;;;;;13.07;7.93;;;19.80;99.90;;;;;;4387978;28;657384;-74
2023/06/26 06:35:23;;;;;;;15.67;7.53;;;19.90;99.90;;;;;;4407402;28;657476;-74
2023/06/26 06:38:10;;;;;;;14.17;7.83;;;20.20;99.90;;;;;;4388645;28;657636;-74
2023/06/26 06:40:58;;;;;;;13.23;7.50;;;20.20;99.90;;;;;;4399365;28;658418;-74
2023/06/26 06:43:45;;;;;;;13.37;6.40;;;20.30;99.90;;;;;;4402031;28;657908;-75
2023/06/26 06:46:34;;;;;;;17.03;7.10;;;20.50;99.90;;;;;;4414984;28;657520;-74
2023/06/26 06:49:21;;;;;;;13.67;6.77;;;20.60;99.90;;;;;;4384534;28;658512;-73
2023/06/26 06:52:10;;;;;;;13.30;7.03;;;20.60;99.90;;;;;;4407964;28;657292;-75
2023/06/26 06:54:58;;;;;;;13.10;6.43;;;20.70;99.90;;;;;;4382401;28;658904;-74
2023/06/26 06:57:45;;;;;;;13.17;6.97;;;20.90;99.90;;;;;;4381431;28;657470;-74
2023/06/26 07:00:32;;;;;;;12.23;6.87;;;20.90;99.90;;;;;;4405939;28;658799;-74
2023/06/26 07:03:22;;;;;;;12.33;6.93;;;20.90;99.90;;;;;;4407595;28;657640;-74
2023/06/26 07:06:09;;;;;;;13.30;6.77;;;21.10;99.90;;;;;;4405768;28;657569;-71
2023/06/26 07:08:56;;;;;;;12.00;7.03;;;21.10;99.90;;;;;;4388384;28;658121;-71
2023/06/26 07:11:43;;;;;;;14.00;6.27;;;21.30;99.90;;;;;;4409239;28;658438;-72
2023/06/26 07:14:31;;;;;;;12.90;6.07;;;21.50;99.90;;;;;;4387970;28;657678;-71
2023/06/26 07:17:18;;;;;;;11.77;6.90;;;21.60;99.90;;;;;;4411051;28;658730;-72
2023/06/26 07:20:09;;;;;;;12.00;7.13;;;21.90;99.90;;;;;;4393281;28;657882;-72
2023/06/26 07:22:57;;;;;;;11.37;6.20;;;22.10;99.90;;;;;;4380589;28;658824;-72
2023/06/26 07:25:44;;;;;;;9.93;5.53;;;22.10;99.90;;;;;;4408401;28;657334;-73
2023/06/26 07:28:31;;;;;;;20.00;6.40;;;22.20;99.90;;;;;;4384089;28;656835;-72
2023/06/26 07:31:19;;;;;;;15.27;6.03;;;22.00;99.90;;;;;;4404948;28;659423;-72
2023/06/26 07:34:06;;;;;;;15.13;7.00;;;22.40;99.90;;;;;;4392412;28;658314;-72
2023/06/26 07:36:55;;;;;;;11.80;6.30;;;22.60;99.90;;;;;;4415416;28;657237;-72
2023/06/26 07:39:42;;;;;;;11.47;6.33;;;22.80;99.90;;;;;;4386986;28;658525;-72
2023/06/26 07:42:29;;;;;;;10.67;6.00;;;22.80;99.90;;;;;;4408845;28;657884;-72
2023/06/26 07:45:17;;;;;;;12.77;5.97;;;22.80;99.90;;;;;;4382740;28;658073;-72
2023/06/26 07:48:04;;;;;;;12.27;5.67;;;22.90;99.90;;;;;;4409493;28;657780;-72
2023/06/26 07:50:51;;;;;;;9.57;5.30;;;23.10;99.90;;;;;;4390826;28;658404;-72
2023/06/26 07:53:40;;;;;;;9.47;4.90;;;23.20;99.90;;;;;;4410026;28;658188;-72
2023/06/26 07:56:27;;;;;;;9.10;4.30;;;23.30;99.90;;;;;;4385947;28;658046;-72
2023/06/26 07:59:14;;;;;;;14.13;5.63;;;23.60;92.50;;;;;;4410481;28;656337;-72
2023/06/26 08:02:02;;;;;;;11.68;6.03;;;24.00;94.90;;;;;;4386807;28;657691;-71
2023/06/26 08:04:49;;;;;;;11.88;5.78;;;23.70;98.10;;;;;;4412481;28;657284;-72
2023/06/26 08:07:36;;;;;;;11.52;5.32;;;23.30;97.60;;;;;;4392622;28;657780;-72
2023/06/26 08:10:25;;;;;;;11.00;5.47;;;23.00;99.90;;;;;;4406355;28;658094;-72
2023/06/26 08:13:12;;;;;;;8.90;5.40;;;22.70;99.90;;;;;;4387119;28;659129;-72
2023/06/26 08:15:59;;;;;;;8.80;5.67;;;22.30;97.90;;;;;;4411625;28;656735;-71
2023/06/26 08:18:46;;;;;;;10.03;5.60;;;22.00;99.90;;;;;;4393136;28;657407;-72
2023/06/26 08:21:33;;;;;;;12.87;5.17;;;22.40;99.90;;;;;;4399102;28;658008;-72
2023/06/26 08:24:21;;;;;;;8.27;5.03;;;22.70;99.90;;;;;;4394605;28;658048;-72
2023/06/26 08:27:09;;;;;;;11.97;5.60;;;22.80;96.60;;;;;;4414419;28;657629;-72
2023/06/26 08:29:56;;;;;;;11.50;5.17;;;22.80;99.90;;;;;;4387265;28;658035;-72
2023/06/26 08:32:44;;;;;;;9.03;5.80;;;23.40;98.70;;;;;;4418257;28;657638;-71
2023/06/26 08:35:31;;;;;;;9.67;5.33;;;23.20;94.20;;;;;;4391382;28;657081;-72
2023/06/26 08:38:21;;;;;;;7.90;5.13;;;23.50;90.80;;;;;;4405975;28;656607;-72
2023/06/26 08:41:08;;;;;;;10.18;4.93;;;23.80;96.20;;;;;;4383022;28;657218;-72
2023/06/26 08:43:57;;;;;;;8.13;4.45;;;24.20;97.10;;;;;;4392561;28;657829;-72
2023/06/26 08:46:44;;;;;;;10.15;4.70;;;23.80;84.50;;;;;;4410370;28;656703;-71
2023/06/26 08:49:35;;;;;;;8.13;4.72;;;23.10;83.00;;;;;;4386266;28;657697;-72
2023/06/26 08:52:24;;;;;;;10.90;4.97;;;23.60;82.40;;;;;;4385478;28;657011;-72
2023/06/26 08:55:12;;;;;;;8.23;4.70;;;24.30;86.90;;;;;;4383526;28;657399;-72
2023/06/26 08:57:59;;;;;;;8.40;4.25;;;24.80;84.20;;;;;;4408546;28;656305;-72
2023/06/26 09:00:49;;;;;;;8.13;4.50;;;24.90;81.30;;;;;;4390853;28;656405;-72
2023/06/26 09:03:36;;;;;;;10.10;4.72;;;24.60;73.50;;;;;;4393570;28;656360;-71
2023/06/26 09:06:23;;;;;;;6.40;4.57;;;24.00;75.20;;;;;;4408494;28;657808;-72
2023/06/26 09:09:11;;;;;;;8.52;4.80;;;24.30;85.70;;;;;;4389109;28;656718;-72
2023/06/26 09:11:58;;;;;;;7.93;4.30;;;24.60;72.60;;;;;;4406671;28;657645;-72
2023/06/26 09:14:45;;;;;;;8.70;4.47;;;25.00;72.90;;;;;;4392641;28;656761;-72
2023/06/26 09:17:35;;;;;;;10.85;4.40;;;24.80;71.80;;;;;;4410668;28;657920;-71
2023/06/26 09:20:22;;;;;;;7.28;4.72;;;24.40;71.00;;;;;;4390989;28;658879;-71
2023/06/26 09:23:09;;;;;;;9.13;5.40;;;24.00;68.10;;;;;;4406914;28;656882;-71
2023/06/26 09:25:57;;;;;;;8.43;4.90;;;24.60;77.30;;;;;;4393002;28;657411;-71
2023/06/26 09:28:44;;;;;;;9.98;4.93;;;25.10;67.90;;;;;;4398393;28;656805;-71
2023/06/26 09:31:31;;;;;;;8.05;5.35;;;25.90;68.20;;;;;;4389386;28;657140;-71
2023/06/26 09:34:20;;;;;;;8.87;5.07;;;26.30;67.50;;;;;;4403782;28;657070;-72
2023/06/26 09:37:08;;;;;;;8.50;4.50;;;26.80;61.60;;;;;;4394437;28;657144;-74
2023/06/26 09:39:55;;;;;;;13.85;4.88;;;26.60;66.00;;;;;;4402822;28;656529;-71
2023/06/26 09:42:42;;;;;;;8.43;4.70;;;25.80;62.30;;;;;;4406903;28;658678;-71
2023/06/26 09:45:32;;;;;;;11.55;4.70;;;25.70;66.20;;;;;;4411384;28;656353;-71
2023/06/26 09:48:19;;;;;;;8.50;4.40;;;25.30;59.60;;;;;;4403505;28;657641;-72
2023/06/26 09:51:08;;;;;;;10.15;4.70;;;25.30;65.20;;;;;;4392023;28;656626;-71
2023/06/26 09:53:55;;;;;;;9.98;4.63;;;25.40;67.00;;;;;;4393982;28;658582;-71
2023/06/26 09:56:43;;;;;;;10.00;5.20;;;24.90;66.60;;;;;;4415035;28;657530;-71
2023/06/26 09:59:30;;;;;;;7.35;4.90;;;25.50;63.50;;;;;;4390584;28;657904;-71
2023/06/26 10:02:17;;;;;;;8.50;4.88;;;26.00;63.50;;;;;;4406262;28;657262;-71
2023/06/26 10:05:06;;;;;;;11.07;5.22;;;26.70;61.80;;;;;;4405560;28;656644;-72
2023/06/26 10:07:55;;;;;;;7.72;4.70;;;26.80;60.90;;;;;;4405430;28;657422;-72
2023/06/26 10:10:42;;;;;;;10.80;4.88;;;26.50;59.70;;;;;;4383403;28;658578;-72
2023/06/26 10:13:32;;;;;;;7.50;4.70;;;26.20;55.70;;;;;;4407990;28;657329;-72
2023/06/26 10:16:21;;;;;;;7.85;4.60;;;25.60;59.80;;;;;;4392037;28;656846;-71
2023/06/26 10:19:09;;;;;;;12.10;5.28;;;25.90;62.70;;;;;;4374221;28;657910;-72
2023/06/26 10:21:57;;;;;;;8.55;5.35;;;25.50;64.00;;;;;;4377992;28;658043;-71
2023/06/26 10:24:46;;;;;;;8.93;5.03;;;25.70;57.40;;;;;;4407359;28;659540;-71
2023/06/26 10:27:35;;;;;;;9.65;5.57;;;25.90;57.70;;;;;;4382197;28;657260;-70
2023/06/26 10:30:23;;;;;;;7.70;5.60;;;26.50;58.80;;;;;;4393038;28;657620;-71
2023/06/26 10:33:11;;;;;;;8.23;5.07;;;26.90;52.20;;;;;;4377596;28;656862;-71
2023/06/26 10:36:14;;;;;;;10.73;5.03;;;27.50;55.30;;;;;;4410258;28;657807;-71
2023/06/26 10:39:05;;;;;;;7.65;4.70;;;27.70;55.40;;;;;;4388415;28;657734;-70
2023/06/26 10:41:55;;;;;;;9.45;5.05;;;27.10;54.00;;;;;;4389002;28;657440;-71
2023/06/26 10:44:43;;;;;;;7.00;5.00;;;26.60;51.60;;;;;;4389585;27;657649;-71
2023/06/26 10:47:31;;;;;;;8.98;5.03;;;25.80;56.20;;;;;;4395828;28;656947;-71
2023/06/26 10:50:19;;;;;;;11.68;4.57;;;25.60;56.70;;;;;;4425806;28;657005;-71
2023/06/26 10:53:18;;;;;;;7.47;4.63;;;25.20;55.70;;;;;;4383119;28;657515;-71
2023/06/26 10:56:06;;;;;;;6.70;4.90;;;24.90;64.60;;;;;;4362060;28;657143;-70
2023/06/26 10:58:54;;;;;;;8.20;4.53;;;25.40;64.30;;;;;;4410203;28;657385;-70
2023/06/26 11:01:42;;;;;;;7.18;4.97;;;26.30;59.60;;;;;;4391943;28;656215;-70
2023/06/26 11:04:39;;;;;;;7.80;4.97;;;27.00;55.20;;;;;;4411427;28;656379;-71
2023/06/26 11:07:27;;;;;;;8.45;4.68;;;27.40;52.00;;;;;;4357865;28;656978;-71
2023/06/26 11:10:15;;;;;;;7.57;4.70;;;27.80;47.80;;;;;;4405348;28;656081;-71
2023/06/26 11:13:02;;;;;;;11.15;4.75;;;27.20;49.00;;;;;;4386907;28;657741;-71
2023/06/26 11:15:51;;;;;;;8.88;4.63;;;28.00;52.90;;;;;;4412105;28;658047;-71
2023/06/26 11:18:38;;;;;;;8.57;4.40;;;28.50;48.40;;;;;;4377093;28;657645;-72
2023/06/26 11:21:25;;;;;;;6.45;4.80;;;28.30;46.60;;;;;;4387447;28;656451;-71
2023/06/26 11:24:13;;;;;;;12.20;4.15;;;26.70;49.30;;;;;;4404638;28;658201;-71
2023/06/26 11:27:06;;;;;;;6.93;4.30;;;26.80;51.10;;;;;;4381350;28;657475;-72
2023/06/26 11:29:53;;;;;;;10.15;4.38;;;27.00;49.00;;;;;;4385442;28;657333;-71
2023/06/26 11:32:42;;;;;;;8.45;4.90;;;27.30;54.40;;;;;;4387063;28;657640;-73
2023/06/26 11:35:30;;;;;;;6.35;4.50;;;27.60;49.90;;;;;;4399394;28;657062;-71
2023/06/26 11:38:18;;;;;;;6.32;4.25;;;28.10;49.70;;;;;;4380877;28;657275;-70
2023/06/26 11:41:08;;;;;;;8.80;4.63;;;27.80;49.30;;;;;;4402241;28;657138;-71
2023/06/26 11:43:56;;;;;;;7.63;4.43;;;27.70;48.30;;;;;;4397616;28;657376;-71
2023/06/26 11:46:43;;;;;;;7.75;4.57;;;27.70;48.20;;;;;;4409273;28;657342;-71
2023/06/26 11:49:32;;;;;;;9.52;4.65;;;27.80;49.70;;;;;;4390773;28;656637;-71
2023/06/26 11:52:19;;;;;;;6.40;4.45;;;27.80;49.20;;;;;;4408743;28;656405;-70
2023/06/26 11:55:07;;;;;;;8.73;4.50;;;28.10;50.50;;;;;;4379800;28;657560;-71
2023/06/26 11:57:54;;;;;;;8.90;4.72;;;28.50;49.50;;;;;;4403225;28;657294;-71
2023/06/26 12:00:43;;;;;;;8.25;5.10;;;28.00;48.10;;;;;;4384611;28;656876;-71
2023/06/26 12:03:30;;;;;;;7.53;4.88;;;28.20;46.80;;;;;;4390016;28;656882;-71
2023/06/26 12:06:19;;;;;;;8.20;4.32;;;28.20;46.00;;;;;;4411386;28;658520;-71
2023/06/26 12:09:09;;;;;;;7.75;4.60;;;28.00;51.90;;;;;;4391420;28;656762;-71
2023/06/26 12:11:56;;;;;;;7.15;4.60;;;27.80;48.90;;;;;;4390815;28;656434;-70
2023/06/26 12:14:43;;;;;;;8.43;4.78;;;28.00;48.80;;;;;;4394927;28;656774;-71
2023/06/26 12:17:31;;;;;;;6.38;4.57;;;28.20;44.80;;;;;;4388427;28;656210;-70
2023/06/26 12:20:19;;;;;;;6.93;4.55;;;28.50;46.30;;;;;;4414089;28;657734;-71
2023/06/26 12:23:12;;;;;;;10.90;4.43;;;28.90;48.60;;;;;;4395007;28;656248;-71
2023/06/26 12:26:01;;;;;;;6.68;4.15;;;27.90;45.50;;;;;;4407843;28;657272;-71
2023/06/26 12:28:48;;;;;;;6.95;4.50;;;27.10;48.80;;;;;;4408153;28;657029;-70
2023/06/26 12:31:35;;;;;;;7.60;4.90;;;26.40;48.60;;;;;;4393215;28;657052;-70
2023/06/26 12:34:27;;;;;;;10.25;4.53;;;26.20;55.80;;;;;;4411274;28;657407;-70
2023/06/26 12:37:15;;;;;;;7.05;4.55;;;26.30;57.00;;;;;;4385552;28;658011;-71
2023/06/26 12:40:06;;;;;;;9.38;5.00;;;26.30;63.20;;;;;;4390635;28;656845;-70
2023/06/26 12:42:53;;;;;;;8.23;4.63;;;26.20;65.10;;;;;;4388513;28;657398;-70
2023/06/26 12:45:42;;;;;;;9.57;5.03;;;26.70;58.80;;;;;;4386418;28;656328;-70
2023/06/26 12:48:43;;;;;;;7.18;4.70;;;27.10;51.00;;;;;;4404612;28;656558;-70
2023/06/26 12:51:30;;;;;;;7.32;4.63;;;27.80;50.20;;;;;;4365450;28;656533;-70
2023/06/26 12:54:17;;;;;;;8.13;4.15;;;28.10;49.80;;;;;;4413442;28;657317;-70
2023/06/26 12:57:06;;;;;;;5.63;4.20;;;28.50;52.20;;;;;;4415421;28;656756;-71
2023/06/26 12:59:54;;;;;;;4.75;3.90;;;28.90;43.30;;;;;;4385336;28;656994;-71
2023/06/26 13:02:41;;;;;;;7.18;4.65;;;28.90;43.90;;;;;;4390965;28;656644;-72
2023/06/26 13:05:28;;;;;;;6.22;3.72;;;29.30;47.30;;;;;;4413793;28;655977;-70
2023/06/26 13:08:17;;;;;;;8.52;4.35;;;29.00;43.50;;;;;;4381728;28;656782;-71
2023/06/26 13:11:04;;;;;;;10.55;4.40;;;29.70;46.30;;;;;;4407134;28;656948;-70
2023/06/26 13:13:52;;;;;;;7.68;4.20;;;28.70;44.10;;;;;;4382534;28;657733;-71
2023/06/26 13:16:40;;;;;;;6.82;4.25;;;28.80;46.00;;;;;;4405817;28;656761;-71
2023/06/26 13:19:27;;;;;;;5.22;4.07;;;28.60;46.40;;;;;;4394578;28;657426;-71
2023/06/26 13:22:14;;;;;;;5.82;4.13;;;28.40;45.40;;;;;;4411626;28;656932;-71
2023/06/26 13:25:01;;;;;;;6.72;3.92;;;28.10;44.90;;;;;;4379077;28;656555;-71
2023/06/26 13:27:49;;;;;;;5.82;3.80;;;27.90;45.50;;;;;;4409900;28;657396;-70
2023/06/26 13:30:37;;;;;;;8.32;4.68;;;27.80;45.70;;;;;;4388489;28;656728;-70
2023/06/26 13:33:25;;;;;;;11.68;4.80;;;27.90;51.30;;;;;;4405641;28;657546;-71
2023/06/26 13:36:12;;;;;;;8.40;4.30;;;27.50;47.80;;;;;;4406836;28;658501;-71
2023/06/26 13:39:00;;;;;;;11.27;4.75;;;27.60;53.60;;;;;;4402694;28;656707;-71
2023/06/26 13:41:47;;;;;;;5.13;4.38;;;27.70;58.90;;;;;;4403122;28;658300;-71
2023/06/26 13:44:35;;;;;;;7.43;4.63;;;27.20;57.70;;;;;;4408853;28;656389;-71
2023/06/26 13:47:24;;;;;;;7.75;4.85;;;27.00;54.80;;;;;;4408124;28;656350;-71
2023/06/26 13:50:11;;;;;;;5.90;4.57;;;26.70;51.90;;;;;;4388980;28;657283;-71
2023/06/26 13:52:59;;;;;;;6.47;4.55;;;27.10;53.50;;;;;;4406111;28;657073;-71
2023/06/26 13:55:46;;;;;;;7.65;4.70;;;27.30;49.20;;;;;;4391003;28;656223;-72
2023/06/26 13:58:36;;;;;;;6.07;4.25;;;27.30;45.00;;;;;;4401593;28;657613;-72
2023/06/26 14:01:23;;;;;;;6.88;4.43;;;27.20;47.00;;;;;;4382780;28;657322;-71
2023/06/26 14:04:12;;;;;;;8.05;4.70;;;27.10;47.00;;;;;;4392848;28;656819;-72
2023/06/26 14:06:59;;;;;;;8.95;4.88;;;26.80;47.70;;;;;;4413352;28;656853;-70
2023/06/26 14:09:46;;;;;;;6.68;4.65;;;26.90;49.50;;;;;;4390783;28;656200;-70
2023/06/26 14:12:35;;;;;;;9.15;5.10;;;27.10;49.10;;;;;;4413798;28;657102;-71
2023/06/26 14:15:22;;;;;;;7.35;5.13;;;27.00;55.20;;;;;;4389840;28;657151;-70